DLH426 LFPG-EGKK
Flight info
| Callsign | DLH426 |
|---|---|
| Flight time | N/A |
| Altitude | 24000 |
| Route | OPALE6H/08L OPALE DCT KESAX DCT KUNAV |
| Aircraft | A20N/M-SDE2E3FGHIRWXY/LB1 |
Departure
| Time | 2026-05-08 12:34 |
|---|---|
| Airport | Charles de Gaulle International Airport (LFPG) |
Arrival
| Time | N/A |
|---|---|
| Airport | London Gatwick Airport (EGKK) |
| Time | Latitude | Longitude | Altitude | Speed | Heading |
|---|---|---|---|---|---|
| 2026-05-08 12:00 | 49.00218 | 2.56907 | 353 ft | 0 kts | 340° |
| 2026-05-08 12:21 | 49.00209 | 2.56912 | 354 ft | 4 kts | 340° |
| 2026-05-08 12:21 | 49.00184 | 2.56925 | 359 ft | 4 kts | 344° |
| 2026-05-08 12:22 | 49.00158 | 2.56934 | 355 ft | 4 kts | 355° |
| 2026-05-08 12:22 | 49.00134 | 2.56931 | 359 ft | 4 kts | 52° |
| 2026-05-08 12:22 | 49.00130 | 2.56922 | 357 ft | 0 kts | 92° |
| 2026-05-08 12:24 | 49.00130 | 2.56926 | 353 ft | 1 kts | 92° |
| 2026-05-08 12:24 | 49.00129 | 2.56945 | 358 ft | 1 kts | 92° |
| 2026-05-08 12:26 | 49.00129 | 2.56953 | 356 ft | 2 kts | 92° |
| 2026-05-08 12:26 | 49.00124 | 2.56988 | 353 ft | 4 kts | 124° |
| 2026-05-08 12:26 | 49.00092 | 2.56996 | 358 ft | 6 kts | 191° |
| 2026-05-08 12:27 | 49.00033 | 2.56987 | 354 ft | 9 kts | 176° |
| 2026-05-08 12:27 | 48.99967 | 2.56982 | 354 ft | 11 kts | 211° |
| 2026-05-08 12:27 | 48.99937 | 2.56867 | 354 ft | 10 kts | 269° |
| 2026-05-08 12:27 | 48.99931 | 2.56738 | 354 ft | 15 kts | 265° |
| 2026-05-08 12:28 | 48.99912 | 2.56570 | 356 ft | 15 kts | 282° |
| 2026-05-08 12:28 | 48.99915 | 2.56448 | 361 ft | 9 kts | 267° |
| 2026-05-08 12:28 | 48.99908 | 2.56321 | 356 ft | 15 kts | 263° |
| 2026-05-08 12:28 | 48.99896 | 2.56133 | 354 ft | 20 kts | 266° |
| 2026-05-08 12:29 | 48.99889 | 2.55958 | 354 ft | 13 kts | 272° |
| 2026-05-08 12:29 | 48.99899 | 2.55886 | 354 ft | 2 kts | 283° |
| 2026-05-08 12:29 | 48.99896 | 2.55827 | 358 ft | 9 kts | 239° |
| 2026-05-08 12:29 | 48.99844 | 2.55736 | 363 ft | 13 kts | 250° |
| 2026-05-08 12:30 | 48.99873 | 2.55620 | 357 ft | 1 kts | 309° |
| 2026-05-08 12:30 | 48.99890 | 2.55589 | 358 ft | 7 kts | 314° |
| 2026-05-08 12:30 | 48.99896 | 2.55572 | 356 ft | 6 kts | 294° |
| 2026-05-08 12:30 | 48.99895 | 2.55472 | 354 ft | 13 kts | 256° |
| 2026-05-08 12:31 | 48.99822 | 2.55429 | 357 ft | 11 kts | 165° |
| 2026-05-08 12:31 | 48.99743 | 2.55455 | 357 ft | 14 kts | 182° |
| 2026-05-08 12:31 | 48.99704 | 2.55444 | 356 ft | 0 kts | 182° |
| 2026-05-08 12:32 | 48.99683 | 2.55446 | 359 ft | 7 kts | 167° |
| 2026-05-08 12:32 | 48.99628 | 2.55500 | 355 ft | 10 kts | 137° |
| 2026-05-08 12:33 | 48.99590 | 2.55566 | 357 ft | 5 kts | 104° |
| 2026-05-08 12:33 | 48.99591 | 2.55648 | 354 ft | 13 kts | 85° |
| 2026-05-08 12:33 | 48.99625 | 2.56329 | 362 ft | 114 kts | 86° |
| 2026-05-08 12:33 | 48.99716 | 2.57912 | 534 ft | 174 kts | 85° |
| 2026-05-08 12:34 | 48.99834 | 2.59884 | 1164 ft | 204 kts | 84° |
| 2026-05-08 12:34 | 48.99980 | 2.62235 | 1741 ft | 244 kts | 84° |
| 2026-05-08 12:34 | 49.00162 | 2.64980 | 2279 ft | 268 kts | 84° |
| 2026-05-08 12:34 | 49.00305 | 2.67869 | 2780 ft | 279 kts | 86° |
| 2026-05-08 12:35 | 49.00434 | 2.70831 | 3447 ft | 276 kts | 86° |
| 2026-05-08 12:35 | 49.00558 | 2.73690 | 4409 ft | 261 kts | 86° |
| 2026-05-08 12:35 | 49.00688 | 2.76356 | 5439 ft | 246 kts | 85° |
| 2026-05-08 12:35 | 49.00750 | 2.78908 | 6405 ft | 240 kts | 94° |
| 2026-05-08 12:36 | 49.00508 | 2.81442 | 7593 ft | 242 kts | 101° |
| 2026-05-08 12:36 | 49.00169 | 2.83992 | 8735 ft | 252 kts | 102° |
| 2026-05-08 12:36 | 48.99829 | 2.86632 | 9374 ft | 255 kts | 102° |
| 2026-05-08 12:36 | 48.99518 | 2.89303 | 9748 ft | 258 kts | 101° |
| 2026-05-08 12:37 | 48.99235 | 2.91975 | 9956 ft | 260 kts | 100° |
| 2026-05-08 12:37 | 48.98961 | 2.94670 | 10049 ft | 260 kts | 100° |
| 2026-05-08 12:37 | 48.98607 | 2.97394 | 10050 ft | 258 kts | 113° |
| 2026-05-08 12:37 | 48.97605 | 2.99608 | 10064 ft | 255 kts | 141° |
| 2026-05-08 12:38 | 48.96058 | 3.00808 | 10064 ft | 251 kts | 169° |
| 2026-05-08 12:38 | 48.94324 | 3.00909 | 10059 ft | 250 kts | 182° |
| 2026-05-08 12:38 | 48.92587 | 3.00919 | 10058 ft | 250 kts | 180° |
| 2026-05-08 12:38 | 48.90807 | 3.00765 | 10066 ft | 276 kts | 196° |
| 2026-05-08 12:39 | 48.88980 | 2.99337 | 10059 ft | 318 kts | 220° |
| 2026-05-08 12:39 | 48.87948 | 2.97654 | 10064 ft | 325 kts | 235° |
| 2026-05-08 12:39 | 48.87062 | 2.94597 | 10051 ft | 316 kts | 258° |
| 2026-05-08 12:39 | 48.87041 | 2.91507 | 10053 ft | 300 kts | 281° |
| 2026-05-08 12:40 | 48.87872 | 2.88685 | 10051 ft | 290 kts | 307° |
| 2026-05-08 12:40 | 48.89399 | 2.86748 | 10055 ft | 290 kts | 333° |
| 2026-05-08 12:40 | 48.91363 | 2.86000 | 10063 ft | 299 kts | 355° |
| 2026-05-08 12:40 | 48.93584 | 2.85784 | 10038 ft | 335 kts | 352° |
| 2026-05-08 12:41 | 48.95832 | 2.85002 | 9692 ft | 330 kts | 340° |
| 2026-05-08 12:41 | 48.97926 | 2.83620 | 9398 ft | 318 kts | 332° |
| 2026-05-08 12:41 | 48.99810 | 2.81986 | 9077 ft | 309 kts | 327° |
| 2026-05-08 12:41 | 49.01534 | 2.80261 | 9137 ft | 299 kts | 313° |
| 2026-05-08 12:42 | 49.03055 | 2.78272 | 9781 ft | 297 kts | 311° |
| 2026-05-08 12:42 | 49.04600 | 2.76215 | 10069 ft | 290 kts | 325° |
| 2026-05-08 12:42 | 49.06341 | 2.74654 | 10056 ft | 289 kts | 330° |
| 2026-05-08 12:42 | 49.08111 | 2.73168 | 10065 ft | 290 kts | 329° |
| 2026-05-08 12:43 | 49.09849 | 2.71609 | 10374 ft | 294 kts | 327° |
| 2026-05-08 12:43 | 49.11596 | 2.69931 | 11391 ft | 295 kts | 326° |
| 2026-05-08 12:43 | 49.13322 | 2.68214 | 12708 ft | 298 kts | 325° |
| 2026-05-08 12:43 | 49.15069 | 2.66444 | 13875 ft | 305 kts | 324° |
| 2026-05-08 12:44 | 49.16851 | 2.64624 | 14931 ft | 310 kts | 324° |
| 2026-05-08 12:44 | 49.18655 | 2.62777 | 16009 ft | 314 kts | 324° |
| 2026-05-08 12:44 | 49.20485 | 2.60901 | 17058 ft | 319 kts | 324° |
| 2026-05-08 12:44 | 49.22346 | 2.58994 | 18111 ft | 325 kts | 324° |
| 2026-05-08 12:45 | 49.24242 | 2.57049 | 18673 ft | 330 kts | 324° |
| 2026-05-08 12:45 | 49.26152 | 2.55089 | 18919 ft | 331 kts | 324° |
| 2026-05-08 12:45 | 49.28070 | 2.53121 | 19036 ft | 332 kts | 324° |
| 2026-05-08 12:45 | 49.29992 | 2.51144 | 19065 ft | 333 kts | 323° |
| 2026-05-08 12:46 | 49.31896 | 2.49184 | 19429 ft | 336 kts | 324° |
| 2026-05-08 12:46 | 49.33907 | 2.47237 | 20363 ft | 340 kts | 323° |